Shalimar II — GUNQ — position and weather

sailwx.info

Track history (hours):
 
Tides and Currents Weather Stations Pressure Air Temp Water Temp Dewpoint Dewpoint Depression Visibility Wind Speed Wind Dir Waves Ship Positions

Shalimar II

Last reported at 2015-Aug-04 19:25 UTC. Time now 2015-Aug-04 19:54 UTC.
Position N 37°56' E 023°41'.

Type: Sailing vessel. MMSI: 235155000.

Date/timePositionNaut miles runAvg speedWind from/ knotsBaromVisibWave heightAir tempDewpointWater temp
2015-Aug-04 19:25N 37°56' E 023°41'0 0.0
2015-Aug-04 18:31N 37°56' E 023°41'0 0.0
2015-Aug-04 17:28N 37°56' E 023°41'0 0.0
2015-Aug-04 16:28N 37°56' E 023°41'0 0.0
2015-Aug-04 15:31N 37°56' E 023°41'0 0.0
2015-Aug-04 14:31N 37°56' E 023°41'0 0.0
2015-Aug-04 13:25N 37°56' E 023°41'0 0.0
2015-Aug-04 12:28N 37°56' E 023°41'0 0.0
2015-Aug-04 11:31N 37°56' E 023°41'0 0.0
2015-Aug-04 10:28N 37°56' E 023°41'0 0.0
2015-Aug-04 09:31N 37°56' E 023°41'0 0.0
2015-Aug-04 08:22N 37°56' E 023°41'0 0.0
2015-Aug-04 07:31N 37°56' E 023°41'0 0.0
2015-Aug-04 06:31N 37°56' E 023°41'0 0.0
2015-Aug-04 05:31N 37°56' E 023°41'0 0.0
2015-Aug-04 04:31N 37°56' E 023°41'0 0.0
2015-Aug-04 03:28N 37°56' E 023°41'0 0.0
2015-Aug-04 02:31N 37°56' E 023°41'0 0.0
2015-Aug-04 01:28N 37°56' E 023°41'0 0.0
2015-Aug-04 00:28N 37°56' E 023°41'0 0.0
2015-Aug-03 23:28N 37°56' E 023°41'0 0.0
2015-Aug-03 22:31N 37°56' E 023°41'0 0.0
2015-Aug-03 21:31N 37°56' E 023°41'0 0.0
2015-Aug-03 20:31N 37°56' E 023°41'0 0.0
2015-Aug-03 18:25N 37°56' E 023°41'0 0.0
2015-Aug-03 17:25N 37°56' E 023°41'0 0.0
2015-Aug-03 16:25N 37°56' E 023°41'0 0.0
2015-Aug-03 15:31N 37°56' E 023°41'0 0.0
2015-Aug-03 14:31N 37°56' E 023°41'0 0.0
2015-Aug-03 13:25N 37°56' E 023°41'0 0.0
2015-Aug-03 12:31N 37°56' E 023°41'0 0.0
2015-Aug-03 10:13N 37°56' E 023°41'0 0.0
2015-Aug-03 09:29N 37°56' E 023°41'0 0.0
2015-Aug-03 08:29N 37°56' E 023°41'0 0.0
2015-Aug-03 07:32N 37°56' E 023°41'0 0.0
2015-Aug-03 06:26N 37°56' E 023°41'0 0.0
2015-Aug-03 05:32N 37°56' E 023°41'0 0.0
2015-Aug-03 04:32N 37°56' E 023°41'0 0.0
2015-Aug-03 03:32N 37°56' E 023°41'0 0.0
2015-Aug-03 02:29N 37°56' E 023°41'0 0.0
2015-Aug-03 01:32N 37°56' E 023°41'0 0.0
2015-Aug-03 00:32N 37°56' E 023°41'0 0.0
2015-Aug-02 23:29N 37°56' E 023°41'0 0.0
2015-Aug-02 22:14N 37°56' E 023°41'0 0.0
2015-Aug-02 21:32N 37°56' E 023°41'0 0.0
2015-Aug-02 20:29N 37°56' E 023°41'0 0.0
2015-Aug-02 19:29N 37°56' E 023°41'0 0.0
2015-Aug-02 18:32N 37°56' E 023°41'0 0.0
2015-Aug-02 17:32N 37°56' E 023°41'0 0.0
2015-Aug-02 16:32N 37°56' E 023°41'0 0.0
2015-Aug-02 15:29N 37°56' E 023°41'0 0.0
2015-Aug-02 14:32N 37°56' E 023°41'0 0.0
2015-Aug-02 13:32N 37°56' E 023°41'9 9.6
2015-Aug-02 12:33N 37°48' E 023°35'8 0.2
2015-Jul-31 14:31N 37°45' E 023°25'4 0.8
2015-Jul-31 09:17N 37°43' E 023°20'11 0.6
2015-Jul-30 16:32N 37°50' E 023°31'10 9.8
2015-Jul-30 15:31N 37°56' E 023°41'0 0.0
2015-Jul-30 14:31N 37°56' E 023°41'0 0.0
2015-Jul-30 13:22N 37°56' E 023°41'0 0.0
2015-Jul-30 12:31N 37°56' E 023°41'0 0.0
2015-Jul-30 11:28N 37°56' E 023°41'0 0.0
2015-Jul-30 10:31N 37°56' E 023°41'0 0.0
2015-Jul-30 09:31N 37°56' E 023°41'0 0.0
2015-Jul-30 08:31N 37°56' E 023°41'0 0.0
2015-Jul-30 07:22N 37°56' E 023°41'0 0.0
2015-Jul-30 06:31N 37°56' E 023°41'0 0.0
2015-Jul-30 05:28N 37°56' E 023°41'0 0.0
2015-Jul-30 04:28N 37°56' E 023°41'0 0.0
2015-Jul-30 03:28N 37°56' E 023°41'0 0.0
2015-Jul-30 02:28N 37°56' E 023°41'0 0.0
2015-Jul-30 01:28N 37°56' E 023°41'0 0.0
2015-Jul-30 00:31N 37°56' E 023°41'0 0.0
2015-Jul-29 23:25N 37°56' E 023°41'0 0.0
2015-Jul-29 22:22N 37°56' E 023°41'0 0.0
2015-Jul-29 21:25N 37°56' E 023°41'0 0.0
2015-Jul-29 20:31N 37°56' E 023°41'0 0.0
2015-Jul-29 19:31N 37°56' E 023°41'0 0.0
2015-Jul-29 18:31N 37°56' E 023°41'0 0.0
2015-Jul-29 17:32N 37°56' E 023°41'0 0.0
2015-Jul-29 16:14N 37°56' E 023°41'0 0.0
2015-Jul-29 15:26N 37°56' E 023°41'0 0.0
2015-Jul-29 14:32N 37°56' E 023°41'0 0.0
2015-Jul-29 13:32N 37°56' E 023°41'0 0.0
2015-Jul-29 12:32N 37°56' E 023°41'0 0.0
2015-Jul-29 11:29N 37°56' E 023°41'0 0.0
2015-Jul-29 10:29N 37°56' E 023°41'0 0.0
2015-Jul-29 09:23N 37°56' E 023°41'0 0.0
2015-Jul-29 08:29N 37°56' E 023°41'0 0.0
2015-Jul-29 07:29N 37°56' E 023°41'0 0.0
2015-Jul-29 06:32N 37°56' E 023°41'0 0.0
2015-Jul-29 05:20N 37°56' E 023°41'0 0.0
2015-Jul-29 04:17N 37°56' E 023°41'0 0.0
2015-Jul-29 03:23N 37°56' E 023°41'0 0.0
2015-Jul-29 02:29N 37°56' E 023°41'0 0.0
2015-Jul-29 01:32N 37°56' E 023°41'0 0.0
2015-Jul-29 00:32N 37°56' E 023°41'0 0.0
2015-Jul-28 23:32N 37°56' E 023°41'0 0.0
2015-Jul-28 22:32N 37°56' E 023°41'0 0.0
2015-Jul-28 21:26N 37°56' E 023°41'0 0.0
2015-Jul-28 20:23N 37°56' E 023°41'0 0.0
2015-Jul-28 19:32N 37°56' E 023°41'0 0.0
2015-Jul-28 18:26N 37°56' E 023°41'0 0.0
2015-Jul-28 17:32N 37°56' E 023°41'0 0.0
2015-Jul-28 16:29N 37°56' E 023°41'0 0.0
2015-Jul-28 15:26N 37°56' E 023°41'0 0.0
2015-Jul-28 14:20N 37°56' E 023°41'0 0.0
2015-Jul-28 13:26N 37°56' E 023°41'0 0.0
2015-Jul-28 12:32N 37°56' E 023°41'0 0.0
2015-Jul-28 11:32N 37°56' E 023°41'0 0.0
2015-Jul-28 10:32N 37°56' E 023°41'0 0.0
2015-Jul-28 09:32N 37°56' E 023°41'0 0.0
2015-Jul-28 08:32N 37°56' E 023°41'0 0.0
2015-Jul-28 07:32N 37°56' E 023°41'0 0.0
2015-Jul-28 06:23N 37°56' E 023°41'0 0.0
2015-Jul-28 05:32N 37°56' E 023°41'0 0.0
2015-Jul-28 04:32N 37°56' E 023°41'0 0.0
2015-Jul-28 03:29N 37°56' E 023°41'0 0.0
2015-Jul-28 02:32N 37°56' E 023°41'0 0.0
2015-Jul-28 01:32N 37°56' E 023°41'0 0.0
2015-Jul-28 00:32N 37°56' E 023°41'0 0.0
2015-Jul-27 23:32N 37°56' E 023°41'0 0.0
2015-Jul-27 22:32N 37°56' E 023°41'0 0.0
2015-Jul-27 21:32N 37°56' E 023°41'0 0.0
2015-Jul-27 20:32N 37°56' E 023°41'0 0.0
2015-Jul-27 19:32N 37°56' E 023°41'0 0.0
2015-Jul-27 18:32N 37°56' E 023°41'0 0.0
2015-Jul-27 17:32N 37°56' E 023°41'0 0.0
2015-Jul-27 16:32N 37°56' E 023°41'0 0.0
2015-Jul-27 15:26N 37°56' E 023°41'0 0.0
2015-Jul-27 14:32N 37°56' E 023°41'0 0.0
2015-Jul-27 13:29N 37°56' E 023°41'0 0.0
2015-Jul-27 12:32N 37°56' E 023°41'0 0.0
2015-Jul-27 11:32N 37°56' E 023°41'0 0.0
2015-Jul-27 10:32N 37°56' E 023°41'0 0.0
2015-Jul-27 09:32N 37°56' E 023°41'0 0.0
2015-Jul-27 08:29N 37°56' E 023°41'0 0.0
2015-Jul-27 07:29N 37°56' E 023°41'0 0.0
2015-Jul-27 06:32N 37°56' E 023°41'0 0.0
2015-Jul-27 05:32N 37°56' E 023°41'0 0.0
2015-Jul-27 04:29N 37°56' E 023°41'0 0.0
2015-Jul-27 03:32N 37°56' E 023°41'0 0.0
2015-Jul-27 02:32N 37°56' E 023°41'0 0.0
2015-Jul-27 01:32N 37°56' E 023°41'0 0.0
2015-Jul-27 00:32N 37°56' E 023°41'0 0.0
2015-Jul-26 23:32N 37°56' E 023°41'0 0.0
2015-Jul-26 22:32N 37°56' E 023°41'0 0.0
2015-Jul-26 21:32N 37°56' E 023°41'0 0.0
2015-Jul-26 20:32N 37°56' E 023°41'0 0.0
2015-Jul-26 19:32N 37°56' E 023°41'0 0.0
2015-Jul-26 18:32N 37°56' E 023°41'0 0.0
2015-Jul-26 17:23N 37°56' E 023°41'0 0.0
2015-Jul-26 16:32N 37°56' E 023°41'1 0.5
2015-Jul-26 15:33N 37°56' E 023°40'1312.6
2015-Jul-26 14:33N 37°43' E 023°37'1312.8
2015-Jul-26 13:33N 37°31' E 023°33'  
Track history (hours):
 
Tides and Currents Weather Stations Pressure Air Temp Water Temp Dewpoint Dewpoint Depression Visibility Wind Speed Wind Dir Waves Ship Positions

Shalimar II

Last reported at 2015-Aug-04 19:25 UTC. Time now 2015-Aug-04 19:54 UTC.
Position N 37°56' E 023°41'.

Type: Sailing vessel. MMSI: 235155000.

Date/timePositionNaut miles runAvg speedWind from/ knotsBaromVisibWave heightAir tempDewpointWater temp
2015-Aug-04 19:25N 37°56' E 023°41'0 0.0
2015-Aug-04 18:31N 37°56' E 023°41'0 0.0
2015-Aug-04 17:28N 37°56' E 023°41'0 0.0
2015-Aug-04 16:28N 37°56' E 023°41'0 0.0
2015-Aug-04 15:31N 37°56' E 023°41'0 0.0
2015-Aug-04 14:31N 37°56' E 023°41'0 0.0
2015-Aug-04 13:25N 37°56' E 023°41'0 0.0
2015-Aug-04 12:28N 37°56' E 023°41'0 0.0
2015-Aug-04 11:31N 37°56' E 023°41'0 0.0
2015-Aug-04 10:28N 37°56' E 023°41'0 0.0
2015-Aug-04 09:31N 37°56' E 023°41'0 0.0
2015-Aug-04 08:22N 37°56' E 023°41'0 0.0
2015-Aug-04 07:31N 37°56' E 023°41'0 0.0
2015-Aug-04 06:31N 37°56' E 023°41'0 0.0
2015-Aug-04 05:31N 37°56' E 023°41'0 0.0
2015-Aug-04 04:31N 37°56' E 023°41'0 0.0
2015-Aug-04 03:28N 37°56' E 023°41'0 0.0
2015-Aug-04 02:31N 37°56' E 023°41'0 0.0
2015-Aug-04 01:28N 37°56' E 023°41'0 0.0
2015-Aug-04 00:28N 37°56' E 023°41'0 0.0
2015-Aug-03 23:28N 37°56' E 023°41'0 0.0
2015-Aug-03 22:31N 37°56' E 023°41'0 0.0
2015-Aug-03 21:31N 37°56' E 023°41'0 0.0
2015-Aug-03 20:31N 37°56' E 023°41'0 0.0
2015-Aug-03 18:25N 37°56' E 023°41'0 0.0
2015-Aug-03 17:25N 37°56' E 023°41'0 0.0
2015-Aug-03 16:25N 37°56' E 023°41'0 0.0
2015-Aug-03 15:31N 37°56' E 023°41'0 0.0
2015-Aug-03 14:31N 37°56' E 023°41'0 0.0
2015-Aug-03 13:25N 37°56' E 023°41'0 0.0
2015-Aug-03 12:31N 37°56' E 023°41'0 0.0
2015-Aug-03 10:13N 37°56' E 023°41'0 0.0
2015-Aug-03 09:29N 37°56' E 023°41'0 0.0
2015-Aug-03 08:29N 37°56' E 023°41'0 0.0
2015-Aug-03 07:32N 37°56' E 023°41'0 0.0
2015-Aug-03 06:26N 37°56' E 023°41'0 0.0
2015-Aug-03 05:32N 37°56' E 023°41'0 0.0
2015-Aug-03 04:32N 37°56' E 023°41'0 0.0
2015-Aug-03 03:32N 37°56' E 023°41'0 0.0
2015-Aug-03 02:29N 37°56' E 023°41'0 0.0
2015-Aug-03 01:32N 37°56' E 023°41'0 0.0
2015-Aug-03 00:32N 37°56' E 023°41'0 0.0
2015-Aug-02 23:29N 37°56' E 023°41'0 0.0
2015-Aug-02 22:14N 37°56' E 023°41'0 0.0
2015-Aug-02 21:32N 37°56' E 023°41'0 0.0
2015-Aug-02 20:29N 37°56' E 023°41'0 0.0
2015-Aug-02 19:29N 37°56' E 023°41'0 0.0
2015-Aug-02 18:32N 37°56' E 023°41'0 0.0
2015-Aug-02 17:32N 37°56' E 023°41'0 0.0
2015-Aug-02 16:32N 37°56' E 023°41'0 0.0
2015-Aug-02 15:29N 37°56' E 023°41'0 0.0
2015-Aug-02 14:32N 37°56' E 023°41'0 0.0
2015-Aug-02 13:32N 37°56' E 023°41'9 9.6
2015-Aug-02 12:33N 37°48' E 023°35'8 0.2
2015-Jul-31 14:31N 37°45' E 023°25'4 0.8
2015-Jul-31 09:17N 37°43' E 023°20'11 0.6
2015-Jul-30 16:32N 37°50' E 023°31'10 9.8
2015-Jul-30 15:31N 37°56' E 023°41'0 0.0
2015-Jul-30 14:31N 37°56' E 023°41'0 0.0
2015-Jul-30 13:22N 37°56' E 023°41'0 0.0
2015-Jul-30 12:31N 37°56' E 023°41'0 0.0
2015-Jul-30 11:28N 37°56' E 023°41'0 0.0
2015-Jul-30 10:31N 37°56' E 023°41'0 0.0
2015-Jul-30 09:31N 37°56' E 023°41'0 0.0
2015-Jul-30 08:31N 37°56' E 023°41'0 0.0
2015-Jul-30 07:22N 37°56' E 023°41'0 0.0
2015-Jul-30 06:31N 37°56' E 023°41'0 0.0
2015-Jul-30 05:28N 37°56' E 023°41'0 0.0
2015-Jul-30 04:28N 37°56' E 023°41'0 0.0
2015-Jul-30 03:28N 37°56' E 023°41'0 0.0
2015-Jul-30 02:28N 37°56' E 023°41'0 0.0
2015-Jul-30 01:28N 37°56' E 023°41'0 0.0
2015-Jul-30 00:31N 37°56' E 023°41'0 0.0
2015-Jul-29 23:25N 37°56' E 023°41'0 0.0
2015-Jul-29 22:22N 37°56' E 023°41'0 0.0
2015-Jul-29 21:25N 37°56' E 023°41'0 0.0
2015-Jul-29 20:31N 37°56' E 023°41'0 0.0
2015-Jul-29 19:31N 37°56' E 023°41'0 0.0
2015-Jul-29 18:31N 37°56' E 023°41'0 0.0
2015-Jul-29 17:32N 37°56' E 023°41'0 0.0
2015-Jul-29 16:14N 37°56' E 023°41'0 0.0
2015-Jul-29 15:26N 37°56' E 023°41'0 0.0
2015-Jul-29 14:32N 37°56' E 023°41'0 0.0
2015-Jul-29 13:32N 37°56' E 023°41'0 0.0
2015-Jul-29 12:32N 37°56' E 023°41'0 0.0
2015-Jul-29 11:29N 37°56' E 023°41'0 0.0
2015-Jul-29 10:29N 37°56' E 023°41'0 0.0
2015-Jul-29 09:23N 37°56' E 023°41'0 0.0
2015-Jul-29 08:29N 37°56' E 023°41'0 0.0
2015-Jul-29 07:29N 37°56' E 023°41'0 0.0
2015-Jul-29 06:32N 37°56' E 023°41'0 0.0
2015-Jul-29 05:20N 37°56' E 023°41'0 0.0
2015-Jul-29 04:17N 37°56' E 023°41'0 0.0
2015-Jul-29 03:23N 37°56' E 023°41'0 0.0
2015-Jul-29 02:29N 37°56' E 023°41'0 0.0
2015-Jul-29 01:32N 37°56' E 023°41'0 0.0
2015-Jul-29 00:32N 37°56' E 023°41'0 0.0
2015-Jul-28 23:32N 37°56' E 023°41'0 0.0
2015-Jul-28 22:32N 37°56' E 023°41'0 0.0
2015-Jul-28 21:26N 37°56' E 023°41'0 0.0
2015-Jul-28 20:23N 37°56' E 023°41'0 0.0
2015-Jul-28 19:32N 37°56' E 023°41'0 0.0
2015-Jul-28 18:26N 37°56' E 023°41'0 0.0
2015-Jul-28 17:32N 37°56' E 023°41'0 0.0
2015-Jul-28 16:29N 37°56' E 023°41'0 0.0
2015-Jul-28 15:26N 37°56' E 023°41'0 0.0
2015-Jul-28 14:20N 37°56' E 023°41'0 0.0
2015-Jul-28 13:26N 37°56' E 023°41'0 0.0
2015-Jul-28 12:32N 37°56' E 023°41'0 0.0
2015-Jul-28 11:32N 37°56' E 023°41'0 0.0
2015-Jul-28 10:32N 37°56' E 023°41'0 0.0
2015-Jul-28 09:32N 37°56' E 023°41'0 0.0
2015-Jul-28 08:32N 37°56' E 023°41'0 0.0
2015-Jul-28 07:32N 37°56' E 023°41'0 0.0
2015-Jul-28 06:23N 37°56' E 023°41'0 0.0
2015-Jul-28 05:32N 37°56' E 023°41'0 0.0
2015-Jul-28 04:32N 37°56' E 023°41'0 0.0
2015-Jul-28 03:29N 37°56' E 023°41'0 0.0
2015-Jul-28 02:32N 37°56' E 023°41'0 0.0
2015-Jul-28 01:32N 37°56' E 023°41'0 0.0
2015-Jul-28 00:32N 37°56' E 023°41'0 0.0
2015-Jul-27 23:32N 37°56' E 023°41'0 0.0
2015-Jul-27 22:32N 37°56' E 023°41'0 0.0
2015-Jul-27 21:32N 37°56' E 023°41'0 0.0
2015-Jul-27 20:32N 37°56' E 023°41'0 0.0
2015-Jul-27 19:32N 37°56' E 023°41'0 0.0
2015-Jul-27 18:32N 37°56' E 023°41'0 0.0
2015-Jul-27 17:32N 37°56' E 023°41'0 0.0
2015-Jul-27 16:32N 37°56' E 023°41'0 0.0
2015-Jul-27 15:26N 37°56' E 023°41'0 0.0
2015-Jul-27 14:32N 37°56' E 023°41'0 0.0
2015-Jul-27 13:29N 37°56' E 023°41'0 0.0
2015-Jul-27 12:32N 37°56' E 023°41'0 0.0
2015-Jul-27 11:32N 37°56' E 023°41'0 0.0
2015-Jul-27 10:32N 37°56' E 023°41'0 0.0
2015-Jul-27 09:32N 37°56' E 023°41'0 0.0
2015-Jul-27 08:29N 37°56' E 023°41'0 0.0
2015-Jul-27 07:29N 37°56' E 023°41'0 0.0
2015-Jul-27 06:32N 37°56' E 023°41'0 0.0
2015-Jul-27 05:32N 37°56' E 023°41'0 0.0
2015-Jul-27 04:29N 37°56' E 023°41'0 0.0
2015-Jul-27 03:32N 37°56' E 023°41'0 0.0
2015-Jul-27 02:32N 37°56' E 023°41'0 0.0
2015-Jul-27 01:32N 37°56' E 023°41'0 0.0
2015-Jul-27 00:32N 37°56' E 023°41'0 0.0
2015-Jul-26 23:32N 37°56' E 023°41'0 0.0
2015-Jul-26 22:32N 37°56' E 023°41'0 0.0
2015-Jul-26 21:32N 37°56' E 023°41'0 0.0
2015-Jul-26 20:32N 37°56' E 023°41'0 0.0
2015-Jul-26 19:32N 37°56' E 023°41'0 0.0
2015-Jul-26 18:32N 37°56' E 023°41'0 0.0
2015-Jul-26 17:23N 37°56' E 023°41'0 0.0
2015-Jul-26 16:32N 37°56' E 023°41'1 0.5
2015-Jul-26 15:33N 37°56' E 023°40'1312.6
2015-Jul-26 14:33N 37°43' E 023°37'1312.8
2015-Jul-26 13:33N 37°31' E 023°33'  

Dump ship's entire track history